Terminal Aerodrome Forecast
Issued by NWS Mt. Holly, NJ

Home | Current Version | Previous Version | Text Only | Print | Product List | Glossary On
Versions: 1 2 3 4 5 6 7 8 9 10 11 12 13 14 15 16 17 18 19 20
000
FTUS41 KPHI 250539
TAFILG
TAF
KILG 250539Z 2506/2606 VRB03KT P6SM SKC
     FM251300 23008KT P6SM SKC
     FM251800 23010G18KT P6SM FEW060
     FM252300 21007KT P6SM SKC=

USA.gov is the U.S. government's official web portal to all federal, state and local government web resources and services.